Time;durP1;ratioP1;P1;durP2;ratioP2;P2;SDS_P1;SDS_P2;PMS_P1;PMS_P2;Temp;Humidity;BMP_temperature;BMP_pressure;BME280_temperature;BME280_humidity;BME280_pressure;Samples;Min_cycle;Max_cycle;Signal;HPM_P1;HPM_P2
2022/07/26 00:01:04;;;;;;;7.03;2.90;;;;;;;24.09;41.17;99412.00;4457729;32;34636;-83
2022/07/26 00:03:32;;;;;;;5.65;2.92;;;;;;;24.02;41.25;99407.28;4441620;32;32741;-84
2022/07/26 00:06:00;;;;;;;4.12;3.08;;;;;;;23.94;41.46;99399.13;4459393;32;33505;-83
2022/07/26 00:08:27;;;;;;;3.25;2.95;;;;;;;23.90;41.34;99396.94;4464151;32;33642;-83
2022/07/26 00:10:55;;;;;;;7.37;3.25;;;;;;;23.77;41.42;99390.13;4457580;32;33290;-83
2022/07/26 00:13:23;;;;;;;7.32;2.85;;;;;;;23.75;41.50;99389.44;4460033;32;32264;-83
2022/07/26 00:15:57;;;;;;;7.07;3.08;;;;;;;23.75;41.54;99381.38;4472063;32;32886;-83
2022/07/26 00:18:25;;;;;;;5.80;3.20;;;;;;;23.76;41.44;99385.75;4462045;32;33474;-84
2022/07/26 00:20:53;;;;;;;4.18;3.08;;;;;;;23.68;42.16;99382.16;4447857;32;32908;-84
2022/07/26 00:23:22;;;;;;;5.00;2.70;;;;;;;23.71;42.27;99377.28;4462671;32;33313;-84
2022/07/26 00:25:50;;;;;;;9.30;3.17;;;;;;;23.74;42.20;99378.84;4473059;32;33015;-84
2022/07/26 00:28:18;;;;;;;5.93;2.78;;;;;;;23.57;42.64;99375.19;4447055;32;34101;-84
2022/07/26 00:30:46;;;;;;;3.22;2.80;;;;;;;23.66;42.17;99366.16;4447434;32;34758;-83
2022/07/26 00:33:15;;;;;;;3.87;3.37;;;;;;;23.61;42.61;99370.31;4447175;32;32993;-83
2022/07/26 00:35:42;;;;;;;4.10;2.70;;;;;;;23.54;42.81;99374.63;4445928;32;32641;-83
2022/07/26 00:38:10;;;;;;;6.85;3.28;;;;;;;23.51;42.68;99370.44;4458464;32;33512;-83
2022/07/26 00:40:39;;;;;;;5.43;3.20;;;;;;;23.37;42.41;99366.47;4458654;32;34387;-83
2022/07/26 00:43:09;;;;;;;3.00;2.33;;;;;;;23.44;42.31;99362.13;4446490;32;34140;-83
2022/07/26 00:45:37;;;;;;;3.85;2.75;;;;;;;23.27;42.29;99362.22;4457794;32;31540;-83
2022/07/26 00:48:05;;;;;;;3.50;2.83;;;;;;;23.25;42.03;99370.44;4456651;32;33507;-82
2022/07/26 00:50:33;;;;;;;4.28;3.10;;;;;;;23.23;41.98;99370.59;4439138;32;33359;-83
2022/07/26 00:53:02;;;;;;;4.32;2.67;;;;;;;23.17;42.66;99370.41;4448088;32;33272;-82
2022/07/26 00:55:31;;;;;;;3.67;2.60;;;;;;;23.25;42.08;99367.75;4460335;32;32245;-83
2022/07/26 00:58:00;;;;;;;5.40;2.78;;;;;;;23.30;41.53;99357.31;4462050;32;33439;-83
2022/07/26 01:00:31;;;;;;;4.22;2.90;;;;;;;23.12;41.94;99357.41;4460909;32;33633;-83
2022/07/26 01:03:01;;;;;;;6.30;2.90;;;;;;;22.91;43.08;99357.75;4434410;32;32853;-83
2022/07/26 01:05:30;;;;;;;5.35;2.90;;;;;;;22.98;42.84;99352.59;4447803;32;31946;-83
2022/07/26 01:08:00;;;;;;;5.03;2.40;;;;;;;22.98;41.51;99341.81;4447111;32;33907;-83
2022/07/26 01:10:34;;;;;;;3.20;2.28;;;;;;;23.03;41.50;99338.66;4461605;32;34745;-83
2022/07/26 01:13:04;;;;;;;3.17;2.87;;;;;;;22.90;42.15;99334.53;4459644;32;34143;-83
2022/07/26 01:15:33;;;;;;;5.75;2.55;;;;;;;22.95;41.57;99336.75;4446005;32;34114;-83
2022/07/26 01:18:01;;;;;;;10.43;3.03;;;;;;;23.05;41.03;99337.47;4448748;32;32916;-84
2022/07/26 01:20:29;;;;;;;3.10;2.55;;;;;;;23.02;41.03;99335.09;4452743;32;33157;-84
2022/07/26 01:22:57;;;;;;;3.35;2.22;;;;;;;22.97;41.63;99334.72;4448017;32;33316;-84
2022/07/26 01:25:30;;;;;;;6.20;2.95;;;;;;;22.98;41.95;99334.59;4459307;32;32258;-84
2022/07/26 01:27:58;;;;;;;6.50;2.55;;;;;;;22.72;42.84;99347.13;4471167;32;33688;-84
2022/07/26 01:30:26;;;;;;;3.62;2.60;;;;;;;22.73;43.00;99338.87;4458396;32;34351;-83
2022/07/26 01:32:54;;;;;;;4.43;2.72;;;;;;;22.61;43.39;99325.84;4446037;32;32788;-84
2022/07/26 01:35:21;;;;;;;3.17;2.40;;;;;;;22.68;43.45;99327.75;4460629;32;33445;-84
2022/07/26 01:37:51;;;;;;;6.53;2.65;;;;;;;22.65;43.93;99320.00;4472452;32;34630;-83
2022/07/26 01:40:19;;;;;;;4.05;3.28;;;;;;;22.78;43.08;99313.34;4460013;32;35419;-83
2022/07/26 01:42:47;;;;;;;3.87;2.78;;;;;;;22.77;43.03;99306.28;4459882;32;33852;-84
2022/07/26 01:45:15;;;;;;;3.50;3.20;;;;;;;22.73;42.33;99301.22;4446098;32;32740;-84
2022/07/26 01:47:48;;;;;;;3.53;2.50;;;;;;;22.71;42.51;99308.59;4458735;32;33709;-82
2022/07/26 01:50:19;;;;;;;3.80;2.53;;;;;;;22.63;42.95;99305.00;4471365;32;34777;-83
2022/07/26 01:52:47;;;;;;;4.00;2.72;;;;;;;22.70;43.25;99298.84;4457377;32;33055;-82
2022/07/26 01:55:14;;;;;;;4.95;2.72;;;;;;;22.62;43.31;99314.94;4457945;32;32675;-82
2022/07/26 01:57:44;;;;;;;5.78;3.20;;;;;;;22.65;43.13;99311.09;4459004;32;33831;-83
2022/07/26 02:00:12;;;;;;;5.03;2.72;;;;;;;22.68;43.13;99298.16;4446014;32;34017;-83
2022/07/26 02:02:40;;;;;;;4.78;2.78;;;;;;;22.57;43.58;99301.09;4448244;32;33993;-82
2022/07/26 02:05:08;;;;;;;4.82;2.72;;;;;;;22.69;43.37;99299.00;4460334;32;34260;-82
2022/07/26 02:07:41;;;;;;;4.40;3.05;;;;;;;22.56;43.57;99304.78;4460745;32;33366;-83
2022/07/26 02:10:12;;;;;;;8.38;3.08;;;;;;;22.46;44.25;99298.66;4458643;32;32398;-83
2022/07/26 02:12:41;;;;;;;5.40;2.83;;;;;;;22.46;44.59;99299.50;4446869;32;33703;-82
2022/07/26 02:15:10;;;;;;;3.70;3.28;;;;;;;22.49;44.40;99306.41;4462933;32;32723;-83
2022/07/26 02:17:38;;;;;;;4.05;2.42;;;;;;;22.42;44.53;99303.50;4447144;32;33158;-83
2022/07/26 02:20:07;;;;;;;3.33;2.50;;;;;;;22.52;44.01;99306.09;4447165;32;33377;-83
2022/07/26 02:22:35;;;;;;;4.43;3.00;;;;;;;22.42;44.36;99314.25;4460428;32;33598;-82
2022/07/26 02:25:03;;;;;;;3.90;3.10;;;;;;;22.58;43.73;99308.16;4474625;32;33829;-82
2022/07/26 02:27:32;;;;;;;4.22;3.10;;;;;;;22.46;44.55;99320.19;4446716;32;33582;-83
2022/07/26 02:30:00;;;;;;;5.40;3.28;;;;;;;22.46;44.62;99315.63;4452209;32;33513;-82
2022/07/26 02:32:29;;;;;;;6.35;3.08;;;;;;;22.45;44.81;99319.31;4461830;32;34376;-83
2022/07/26 02:34:56;;;;;;;4.07;3.00;;;;;;;22.30;45.43;99315.47;4446427;32;32374;-82
2022/07/26 02:37:24;;;;;;;5.28;3.28;;;;;;;22.33;45.51;99314.34;4461314;32;33179;-83
2022/07/26 02:39:52;;;;;;;3.90;2.53;;;;;;;22.27;45.88;99312.28;4470931;32;34868;-84
2022/07/26 02:42:20;;;;;;;5.57;3.12;;;;;;;22.29;45.58;99313.78;4447942;32;33169;-84
2022/07/26 02:44:47;;;;;;;3.55;2.90;;;;;;;22.18;45.80;99317.56;4460982;32;33127;-85
2022/07/26 02:47:15;;;;;;;3.15;2.85;;;;;;;22.27;45.72;99315.81;4472518;32;34320;-84
2022/07/26 02:49:44;;;;;;;5.32;2.72;;;;;;;22.31;45.63;99317.16;4461709;32;35082;-84
2022/07/26 02:52:11;;;;;;;4.87;3.00;;;;;;;22.25;45.65;99307.03;4451836;32;33070;-83
2022/07/26 02:54:43;;;;;;;4.60;3.08;;;;;;;22.21;46.01;99311.00;4461522;32;33908;-83
2022/07/26 02:57:13;;;;;;;3.42;2.92;;;;;;;22.15;46.44;99304.41;4462810;32;34583;-84
2022/07/26 02:59:41;;;;;;;3.50;2.95;;;;;;;22.21;46.22;99308.31;4460397;32;33631;-84
2022/07/26 03:02:09;;;;;;;4.40;3.92;;;;;;;22.19;45.80;99300.41;4448190;32;33823;-83
2022/07/26 03:04:38;;;;;;;5.12;3.08;;;;;;;22.13;45.94;99311.81;4459652;32;33135;-83
2022/07/26 03:07:06;;;;;;;3.25;2.95;;;;;;;22.23;45.23;99309.88;4473382;32;34284;-84
2022/07/26 03:09:34;;;;;;;7.03;2.85;;;;;;;22.07;46.02;99309.66;4460028;32;33833;-85
2022/07/26 03:12:01;;;;;;;4.50;3.30;;;;;;;21.94;46.67;99314.59;4460902;32;34704;-84
2022/07/26 03:14:29;;;;;;;4.25;2.80;;;;;;;21.91;46.66;99313.03;4461377;32;33426;-83
2022/07/26 03:16:57;;;;;;;14.73;4.18;;;;;;;21.92;46.95;99311.19;4471173;32;34242;-82
2022/07/26 03:19:25;;;;;;;8.68;4.22;;;;;;;22.02;47.70;99311.12;4469527;32;33903;-83
2022/07/26 03:21:53;;;;;;;4.53;2.87;;;;;;;22.05;47.48;99305.44;4448880;32;33844;-83
2022/07/26 03:24:21;;;;;;;4.80;3.30;;;;;;;21.97;47.81;99316.97;4447945;32;31962;-82
2022/07/26 03:26:49;;;;;;;5.60;3.50;;;;;;;22.09;46.88;99317.59;4473519;32;33839;-82
2022/07/26 03:29:17;;;;;;;7.03;3.40;;;;;;;22.04;47.04;99325.28;4447588;32;33041;-82
2022/07/26 03:31:47;;;;;;;6.37;3.75;;;;;;;21.92;47.35;99322.78;4476081;32;33759;-82
2022/07/26 03:34:15;;;;;;;7.10;3.33;;;;;;;21.76;48.47;99317.25;4460440;32;33034;-83
2022/07/26 03:36:43;;;;;;;4.90;3.12;;;;;;;21.95;48.16;99316.28;4447613;32;34244;-82
2022/07/26 03:39:11;;;;;;;6.28;3.28;;;;;;;22.00;48.00;99313.97;4460934;32;33509;-82
2022/07/26 03:41:40;;;;;;;7.62;3.60;;;;;;;21.96;48.16;99317.97;4459270;32;33840;-82
2022/07/26 03:44:08;;;;;;;5.18;3.78;;;;;;;22.07;48.17;99309.66;4472079;32;33821;-83
2022/07/26 03:46:37;;;;;;;3.90;3.53;;;;;;;22.03;48.87;99305.63;4460659;32;33515;-83
2022/07/26 03:49:06;;;;;;;5.00;3.60;;;;;;;22.19;48.74;99300.41;4461101;32;34771;-82
2022/07/26 03:51:40;;;;;;;5.80;3.40;;;;;;;22.27;48.35;99293.44;4458045;32;33850;-82
2022/07/26 03:54:10;;;;;;;5.60;3.75;;;;;;;22.27;47.81;99298.81;4460862;32;32632;-83
2022/07/26 03:56:40;;;;;;;7.25;3.90;;;;;;;22.26;48.23;99297.94;4462139;32;34230;-84
2022/07/26 03:59:09;;;;;;;5.72;4.30;;;;;;;22.46;48.22;99298.66;4472678;32;33672;-84
2022/07/26 04:01:41;;;;;;;8.90;3.37;;;;;;;22.47;47.97;99294.97;4460557;32;33498;-84
2022/07/26 04:04:11;;;;;;;7.57;3.72;;;;;;;22.58;47.95;99285.78;4461051;32;33570;-84
2022/07/26 04:06:40;;;;;;;8.23;3.70;;;;;;;22.59;47.72;99282.94;4460050;32;33528;-84
2022/07/26 04:09:10;;;;;;;7.50;3.10;;;;;;;22.77;47.13;99284.75;4459921;32;34099;-83
2022/07/26 04:11:41;;;;;;;4.07;3.67;;;;;;;22.82;45.89;99280.59;4448372;32;33420;-84
2022/07/26 04:14:10;;;;;;;9.48;3.65;;;;;;;22.97;44.82;99270.94;4472846;32;33046;-83
2022/07/26 04:16:38;;;;;;;5.03;3.85;;;;;;;23.06;44.82;99269.16;4444488;32;32683;-83
2022/07/26 04:19:10;;;;;;;8.10;3.60;;;;;;;23.09;45.15;99274.22;4448583;32;33363;-83
2022/07/26 04:21:38;;;;;;;6.50;3.33;;;;;;;23.06;46.03;99277.22;4472777;32;33866;-82
2022/07/26 04:24:07;;;;;;;5.25;3.33;;;;;;;23.36;44.46;99280.41;4459188;32;34085;-82
2022/07/26 04:26:37;;;;;;;4.03;3.62;;;;;;;23.50;44.66;99287.91;4458172;32;33097;-82
2022/07/26 04:29:07;;;;;;;5.05;3.25;;;;;;;23.54;45.41;99278.47;4473363;32;33619;-82
2022/07/26 04:31:44;;;;;;;7.10;4.22;;;;;;;23.35;46.93;99284.13;4458605;32;33063;-83
2022/07/26 04:34:12;;;;;;;4.55;3.17;;;;;;;23.55;45.78;99292.78;4449449;32;32816;-84
2022/07/26 04:36:41;;;;;;;4.72;3.75;;;;;;;23.62;45.15;99328.88;4461809;32;33150;-84
2022/07/26 04:39:13;;;;;;;17.42;3.55;;;;;;;23.47;43.81;99396.00;4472817;32;33241;-84
2022/07/26 04:41:43;;;;;;;8.88;4.72;;;;;;;23.45;41.80;99400.69;4459847;32;33633;-83
2022/07/26 04:44:11;;;;;;;5.05;3.28;;;;;;;23.45;42.25;99354.88;4459608;32;34184;-83
2022/07/26 04:46:41;;;;;;;8.70;3.97;;;;;;;23.68;42.01;99353.34;4448368;32;33598;-84
2022/07/26 04:49:12;;;;;;;8.65;4.37;;;;;;;23.92;41.60;99376.03;4448945;32;32669;-84
2022/07/26 04:51:41;;;;;;;7.50;3.55;;;;;;;24.15;40.53;99352.84;4460168;32;34229;-85
2022/07/26 04:54:09;;;;;;;9.75;3.53;;;;;;;23.89;41.85;99365.59;4459860;32;32420;-84
2022/07/26 04:56:38;;;;;;;9.48;3.95;;;;;;;24.03;42.32;99356.88;4471681;32;33856;-83
2022/07/26 04:59:06;;;;;;;6.20;3.62;;;;;;;24.23;41.93;99350.16;4459618;32;33672;-84
2022/07/26 05:01:34;;;;;;;7.18;4.20;;;;;;;24.66;40.14;99350.09;4440735;32;32527;-83
2022/07/26 05:04:03;;;;;;;7.85;4.50;;;;;;;24.43;40.68;99350.75;4473212;32;33299;-84
2022/07/26 05:06:32;;;;;;;5.32;3.70;;;;;;;24.60;40.51;99358.88;4447968;32;33163;-83
2022/07/26 05:09:02;;;;;;;6.60;3.97;;;;;;;24.55;42.25;99353.97;4460324;32;34440;-83
2022/07/26 05:14:08;;;;;;;6.28;3.67;;;;;;;24.85;41.43;99330.84;4463089;32;31372;-83
2022/07/26 05:16:38;;;;;;;5.47;3.80;;;;;;;24.88;41.78;99337.78;4464777;32;34320;-83
2022/07/26 05:19:13;;;;;;;5.25;3.50;;;;;;;24.93;40.28;99336.25;4467824;32;33605;-84
2022/07/26 05:21:42;;;;;;;5.45;4.40;;;;;;;25.17;41.75;99338.09;4449987;31;31430;-84
2022/07/26 05:24:10;;;;;;;8.57;3.83;;;;;;;25.44;40.33;99341.41;4465615;32;33829;-83
2022/07/26 05:26:38;;;;;;;7.50;3.83;;;;;;;25.51;39.13;99337.00;4460347;32;33627;-84
2022/07/26 05:29:06;;;;;;;9.65;4.12;;;;;;;25.78;37.64;99336.59;4449923;32;33232;-84
2022/07/26 05:31:36;;;;;;;7.50;4.15;;;;;;;25.83;36.74;99332.50;4462896;32;33373;-84
2022/07/26 05:34:04;;;;;;;8.88;4.30;;;;;;;26.03;36.44;99336.47;4463569;32;33142;-84
2022/07/26 05:36:34;;;;;;;9.55;4.43;;;;;;;26.39;37.78;99342.12;4451587;32;32868;-84
2022/07/26 05:39:05;;;;;;;5.45;4.00;;;;;;;26.38;36.45;99332.34;4478045;31;31903;-85
2022/07/26 05:41:34;;;;;;;10.63;3.53;;;;;;;26.38;37.38;99336.91;4451087;32;33277;-84
2022/07/26 05:44:08;;;;;;;9.57;4.70;;;;;;;26.86;36.34;99330.28;4468160;32;32367;-83
2022/07/26 05:46:39;;;;;;;8.07;4.20;;;;;;;27.06;37.12;99330.59;4458530;32;33716;-83
2022/07/26 05:49:09;;;;;;;9.15;4.43;;;;;;;27.09;36.19;99324.03;4458565;32;34015;-83
2022/07/26 05:51:37;;;;;;;11.77;5.10;;;;;;;27.32;36.69;99324.78;4457108;32;33920;-83
2022/07/26 05:54:05;;;;;;;7.90;4.55;;;;;;;27.43;37.48;99326.19;4461231;32;33133;-83
2022/07/26 05:56:34;;;;;;;10.27;4.10;;;;;;;27.62;37.14;99325.63;4451467;32;33048;-83
2022/07/26 05:59:05;;;;;;;14.13;4.90;;;;;;;28.00;37.99;99330.94;4460901;32;33117;-83
2022/07/26 06:01:39;;;;;;;6.53;4.45;;;;;;;28.37;37.36;99324.50;4459201;32;34699;-83
2022/07/26 06:04:09;;;;;;;7.87;4.97;;;;;;;28.04;37.65;99326.81;4460533;32;33619;-83
2022/07/26 06:06:38;;;;;;;11.10;5.03;;;;;;;28.21;37.72;99330.97;4461250;32;33805;-83
2022/07/26 06:09:06;;;;;;;9.00;4.90;;;;;;;28.32;38.76;99335.88;4449945;32;33595;-83
2022/07/26 06:14:12;;;;;;;6.97;4.57;;;;;;;28.72;37.85;99332.75;4442951;32;33911;-83
2022/07/26 06:16:41;;;;;;;6.97;4.70;;;;;;;28.93;38.52;99330.03;4432387;32;33227;-83
2022/07/26 06:19:12;;;;;;;14.07;5.72;;;;;;;29.02;39.46;99328.88;4433962;32;35686;-83
2022/07/26 06:21:41;;;;;;;11.02;4.72;;;;;;;29.04;40.70;99342.25;4444700;32;32891;-83
2022/07/26 06:24:09;;;;;;;8.60;5.80;;;;;;;29.15;40.75;99339.00;4422220;32;33256;-83
2022/07/26 06:29:18;;;;;;;8.07;5.25;;;;;;;29.33;41.28;99328.44;4447279;32;33994;-82
2022/07/26 06:31:46;;;;;;;6.22;5.40;;;;;;;29.28;41.61;99320.03;4444330;32;32138;-82
2022/07/26 06:34:15;;;;;;;10.77;5.53;;;;;;;29.54;41.26;99322.13;4425746;32;33244;-84
2022/07/26 06:36:45;;;;;;;9.07;5.47;;;;;;;29.72;41.12;99327.03;4438209;32;33448;-84
2022/07/26 06:39:13;;;;;;;12.50;5.90;;;;;;;29.06;42.27;99329.31;4443958;32;33725;-83
2022/07/26 06:41:43;;;;;;;7.37;5.72;;;;;;;29.23;41.82;99325.25;4435329;32;33574;-83
2022/07/26 06:44:13;;;;;;;8.45;5.72;;;;;;;29.55;41.16;99325.69;4437347;32;32054;-83
2022/07/26 06:46:44;;;;;;;10.25;5.43;;;;;;;29.68;40.87;99317.59;4429392;32;33638;-84
2022/07/26 06:49:13;;;;;;;10.70;5.40;;;;;;;29.74;40.65;99322.22;4432679;32;34741;-84
2022/07/26 06:51:49;;;;;;;15.48;4.97;;;;;;;29.55;41.21;99307.47;4435464;32;32424;-83
2022/07/26 06:54:19;;;;;;;11.48;5.68;;;;;;;29.50;41.27;99320.81;4431873;32;33549;-83
2022/07/26 06:56:48;;;;;;;9.52;5.22;;;;;;;29.52;40.83;99313.28;4452229;32;33927;-83
2022/07/26 06:59:17;;;;;;;6.00;4.60;;;;;;;29.57;41.19;99312.72;4435043;32;33984;-83
2022/07/26 07:01:52;;;;;;;11.07;4.93;;;;;;;29.60;41.54;99304.16;4447828;32;34590;-83
2022/07/26 07:04:31;;;;;;;6.45;5.00;;;;;;;29.62;41.04;99307.50;4435120;32;33948;-84
2022/07/26 07:07:07;;;;;;;7.60;4.60;;;;;;;29.53;42.07;99308.69;4440214;32;33695;-84
2022/07/26 07:09:37;;;;;;;5.53;4.90;;;;;;;29.87;40.63;99305.13;4434657;32;34049;-84
2022/07/26 07:12:06;;;;;;;11.12;5.28;;;;;;;30.08;40.08;99304.12;4436580;32;34639;-84
2022/07/26 07:14:38;;;;;;;6.37;4.43;;;;;;;29.79;41.05;99303.41;4465323;32;34247;-84
2022/07/26 07:17:08;;;;;;;6.57;4.45;;;;;;;30.16;39.62;99295.81;4463922;32;33453;-84
2022/07/26 07:19:42;;;;;;;6.37;5.05;;;;;;;30.15;40.53;99302.31;4449381;32;33782;-86
2022/07/26 07:22:11;;;;;;;7.35;5.18;;;;;;;30.24;40.09;99305.66;4460395;32;33273;-85
2022/07/26 07:24:41;;;;;;;9.55;5.20;;;;;;;30.15;40.28;99304.16;4449191;32;34035;-85
2022/07/26 07:27:10;;;;;;;9.25;4.75;;;;;;;30.58;39.19;99302.78;4452627;32;34202;-85
2022/07/26 07:29:40;;;;;;;7.18;4.68;;;;;;;30.73;39.36;99299.91;4467345;32;34799;-85
2022/07/26 07:32:11;;;;;;;7.75;4.57;;;;;;;31.04;38.63;99303.84;4452441;32;32342;-85
2022/07/26 07:34:46;;;;;;;13.13;5.07;;;;;;;30.91;38.59;99301.13;4465240;32;32701;-85
2022/07/26 07:37:16;;;;;;;8.43;6.18;;;;;;;31.07;37.99;99292.53;4438869;32;33090;-85
2022/07/26 07:39:48;;;;;;;6.75;4.32;;;;;;;31.19;37.67;99298.16;4468809;32;32903;-85
2022/07/26 07:42:20;;;;;;;10.63;4.72;;;;;;;31.15;38.03;99302.41;4452271;32;34467;-85
2022/07/26 07:44:49;;;;;;;6.12;4.18;;;;;;;31.40;37.30;99300.69;4452039;32;32588;-85
2022/07/26 07:47:17;;;;;;;8.40;3.92;;;;;;;30.94;38.07;99317.06;4480910;31;34640;-85
2022/07/26 07:49:46;;;;;;;6.20;4.70;;;;;;;30.88;38.19;99301.56;4463064;32;32281;-85
2022/07/26 07:52:17;;;;;;;8.43;4.20;;;;;;;30.90;38.44;99304.91;4448648;32;33251;-85
2022/07/26 07:54:46;;;;;;;9.50;4.85;;;;;;;30.77;38.41;99311.22;4475378;31;31937;-85
2022/07/26 07:57:19;;;;;;;6.70;4.70;;;;;;;30.83;38.93;99326.72;4449937;32;33700;-85
2022/07/26 07:59:59;;;;;;;5.00;4.57;;;;;;;30.87;38.86;99324.44;4464360;32;35783;-85
2022/07/26 08:02:34;;;;;;;4.20;3.80;;;;;;;30.79;38.99;99330.91;4460238;32;34375;-85
2022/07/26 08:05:03;;;;;;;5.85;4.05;;;;;;;30.73;39.20;99327.16;4458930;32;33792;-84
2022/07/26 08:07:41;;;;;;;5.30;3.97;;;;;;;30.54;39.82;99334.22;4460044;32;33757;-85
2022/07/26 08:10:17;;;;;;;10.13;4.35;;;;;;;30.29;40.44;99333.09;4457584;32;33234;-85
2022/07/26 08:15:26;;;;;;;10.90;4.28;;;;;;;30.37;40.77;99318.47;4471634;32;32835;-85
2022/07/26 08:17:54;;;;;;;7.60;4.53;;;;;;;30.35;40.58;99314.06;4459001;32;33296;-85
2022/07/26 08:20:29;;;;;;;7.40;4.32;;;;;;;30.21;40.91;99320.53;4459357;32;34411;-86
2022/07/26 08:22:58;;;;;;;9.20;4.05;;;;;;;30.61;41.06;99315.16;4459110;32;34238;-85
2022/07/26 08:25:28;;;;;;;9.23;3.92;;;;;;;31.04;40.50;99320.22;4460639;32;33462;-85
2022/07/26 08:28:00;;;;;;;10.93;3.78;;;;;;;30.84;39.46;99329.25;4461868;32;32511;-86
2022/07/26 08:30:32;;;;;;;8.60;5.82;;;;;;;30.73;39.93;99315.41;4461708;32;34185;-85
2022/07/26 08:33:00;;;;;;;5.57;4.20;;;;;;;30.61;40.22;99309.69;4445556;32;34556;-85
2022/07/26 08:35:32;;;;;;;6.57;4.20;;;;;;;30.23;40.98;99304.81;4460699;32;33142;-85
2022/07/26 08:38:06;;;;;;;8.93;3.90;;;;;;;30.71;40.18;99301.97;4474197;32;34011;-86
2022/07/26 08:40:40;;;;;;;5.00;4.22;;;;;;;30.90;39.72;99299.47;4446179;32;35895;-86
2022/07/26 08:43:10;;;;;;;5.07;4.10;;;;;;;31.20;38.72;99300.69;4448122;32;32890;-86
2022/07/26 08:45:40;;;;;;;4.45;3.92;;;;;;;31.03;39.85;99283.94;4458722;32;33264;-86
2022/07/26 08:48:11;;;;;;;7.85;3.80;;;;;;;31.25;38.60;99295.44;4472987;32;34576;-86
2022/07/26 08:53:36;;;;;;;7.90;3.78;;;;;;;31.62;38.76;99291.16;4461607;32;34917;-86
2022/07/26 08:56:08;;;;;;;;;;;;;;;31.80;38.06;99298.63;4465043;31;32199;-86
2022/07/26 08:58:35;;;;;;;4.70;3.35;;;;;;;31.40;38.85;99310.75;4460544;32;34673;-86
2022/07/26 09:01:08;;;;;;;6.53;4.25;;;;;;;31.66;38.22;99318.84;4448815;32;34917;-86
2022/07/26 09:03:41;;;;;;;8.30;4.45;;;;;;;31.69;37.14;99315.69;4458288;32;33993;-85
2022/07/26 09:06:12;;;;;;;6.82;4.75;;;;;;;31.93;37.24;99326.97;4447059;32;33829;-86
2022/07/26 09:08:42;;;;;;;5.45;4.28;;;;;;;31.80;37.15;99325.94;4442120;32;32411;-86
2022/07/26 09:11:33;;;;;;;;;;;;;;;31.64;37.56;99325.59;4450258;32;34656;-85
2022/07/26 09:14:03;;;;;;;7.82;3.80;;;;;;;31.02;38.79;99330.50;4462030;32;34259;-85
2022/07/26 09:16:32;;;;;;;4.32;3.83;;;;;;;31.27;38.62;99342.44;4458923;32;32636;-84
2022/07/26 09:19:21;;;;;;;5.45;4.95;;;;;;;31.12;38.67;99344.53;4475684;31;33592;-85
2022/07/26 09:21:51;;;;;;;6.35;4.37;;;;;;;30.74;39.08;99356.06;4445575;32;33980;-86
2022/07/26 09:24:33;;;;;;;6.60;3.80;;;;;;;30.66;39.72;99369.03;4458153;32;34173;-86
2022/07/26 09:27:05;;;;;;;6.90;4.75;;;;;;;30.76;39.50;99372.22;4466359;32;33853;-86
2022/07/26 09:29:45;;;;;;;4.62;4.15;;;;;;;30.34;40.54;99394.13;4452507;32;33213;-87
2022/07/26 09:32:28;;;;;;;7.87;3.80;;;;;;;30.20;41.18;99413.34;4461504;32;33980;-86
2022/07/26 09:35:09;;;;;;;4.82;3.97;;;;;;;29.87;41.84;99432.19;4449788;32;33179;-86
2022/07/26 09:37:59;;;;;;;6.00;4.07;;;;;;;29.76;42.11;99456.19;4450088;32;33219;-86
2022/07/26 09:40:35;;;;;;;5.65;3.92;;;;;;;29.66;42.26;99487.53;4447646;32;32723;-86
2022/07/26 09:43:06;;;;;;;7.47;4.28;;;;;;;29.45;42.97;99485.66;4455094;32;34857;-85
2022/07/26 09:45:38;;;;;;;10.45;4.87;;;;;;;29.32;43.28;99484.50;4456621;32;34111;-85
2022/07/26 09:48:12;;;;;;;8.98;4.70;;;;;;;29.11;43.53;99445.63;4460848;32;32770;-85
2022/07/26 09:50:47;;;;;;;12.00;4.72;;;;;;;28.58;47.17;99424.13;4451196;32;33188;-84
2022/07/26 09:53:26;;;;;;;11.70;4.82;;;;;;;28.23;48.54;99432.06;4453341;32;33178;-85
2022/07/26 09:55:57;;;;;;;6.37;4.65;;;;;;;27.79;52.66;99451.09;4457138;32;32819;-85
2022/07/26 09:58:27;;;;;;;8.00;4.55;;;;;;;27.86;52.54;99472.88;4473267;31;33787;-85
2022/07/26 10:03:39;;;;;;;13.07;6.15;;;;;;;27.77;53.89;99437.72;4465330;32;33238;-84
2022/07/26 10:06:13;;;;;;;7.10;5.53;;;;;;;27.27;56.77;99413.97;4451959;32;34671;-84
2022/07/26 10:08:42;;;;;;;8.30;5.47;;;;;;;26.95;58.96;99409.62;4444297;32;32197;-84
2022/07/26 10:11:11;;;;;;;12.82;6.20;;;;;;;26.37;61.92;99421.84;4461049;32;31994;-84
2022/07/26 10:13:47;;;;;;;10.30;5.65;;;;;;;26.27;61.72;99416.66;4466274;32;34266;-84
2022/07/26 10:16:32;;;;;;;10.45;5.57;;;;;;;25.97;63.35;99430.00;4460200;32;34512;-84
2022/07/26 10:19:10;;;;;;;8.57;5.95;;;;;;;25.85;64.52;99457.59;4458291;32;32721;-84
2022/07/26 10:21:40;;;;;;;8.07;5.82;;;;;;;25.98;64.57;99463.31;4455865;32;33433;-84
2022/07/26 10:24:25;;;;;;;8.27;5.85;;;;;;;26.38;63.23;99462.28;4448624;32;33837;-84
2022/07/26 10:26:53;;;;;;;6.80;6.05;;;;;;;26.14;63.56;99465.94;4466058;32;32737;-84
2022/07/26 10:29:25;;;;;;;7.80;6.22;;;;;;;26.19;63.57;99477.06;4462466;32;32601;-84
2022/07/26 10:32:00;;;;;;;8.32;5.70;;;;;;;25.72;64.74;99487.81;4446065;32;33682;-85
2022/07/26 10:34:45;;;;;;;7.07;5.57;;;;;;;25.59;64.60;99491.09;4461289;32;34766;-84
2022/07/26 10:37:26;;;;;;;6.70;6.00;;;;;;;25.78;63.65;99503.41;4452346;32;32829;-84
2022/07/26 10:40:17;;;;;;;12.25;6.03;;;;;;;25.64;64.02;99506.78;4453025;32;32639;-84
2022/07/26 10:42:50;;;;;;;10.43;6.00;;;;;;;25.70;63.67;99501.53;4450410;32;35102;-84
2022/07/26 10:45:24;;;;;;;6.72;6.05;;;;;;;25.74;63.54;99502.88;4467191;32;34520;-84
2022/07/26 10:48:17;;;;;;;7.22;6.32;;;;;;;25.81;63.39;99496.81;4462301;32;33818;-83
2022/07/26 10:50:48;;;;;;;8.32;6.40;;;;;;;25.57;63.73;99501.19;4447178;32;32223;-84
2022/07/26 10:53:19;;;;;;;11.10;6.35;;;;;;;25.48;64.69;99496.81;4452467;32;33689;-85
2022/07/26 10:55:53;;;;;;;10.50;7.12;;;;;;;25.63;64.33;99497.81;4460110;32;31994;-85
2022/07/26 10:58:25;;;;;;;7.25;6.18;;;;;;;25.46;65.28;99498.84;4449732;32;33183;-84
2022/07/26 11:01:04;;;;;;;8.18;6.93;;;;;;;25.63;64.24;99515.91;4439455;32;32223;-85
2022/07/26 11:03:43;;;;;;;7.97;7.12;;;;;;;25.71;64.56;99514.03;4453479;32;32963;-84
2022/07/26 11:06:18;;;;;;;9.60;6.70;;;;;;;25.65;65.03;99517.44;4450912;32;33396;-85
2022/07/26 11:08:49;;;;;;;8.25;6.32;;;;;;;25.72;64.76;99513.00;4448747;32;33045;-85
2022/07/26 11:11:30;;;;;;;6.83;6.13;;;;;;;25.90;63.12;99506.59;4458288;32;33405;-85
2022/07/26 11:14:12;;;;;;;6.90;6.20;;;;;;;25.88;62.80;99500.53;4464759;31;33503;-85
2022/07/26 11:16:46;;;;;;;12.00;5.62;;;;;;;25.41;64.48;99509.34;4451375;32;34319;-85
2022/07/26 11:19:19;;;;;;;8.80;6.30;;;;;;;25.66;63.11;99505.59;4463991;32;33389;-84
2022/07/26 11:21:54;;;;;;;10.32;6.07;;;;;;;25.65;63.60;99498.50;4436625;32;32951;-84
2022/07/26 11:24:25;;;;;;;9.02;6.20;;;;;;;25.84;62.99;99491.06;4440734;32;33347;-84
2022/07/26 11:27:01;;;;;;;7.47;6.32;;;;;;;25.83;62.37;99494.75;4467627;32;32984;-85
2022/07/26 11:29:34;;;;;;;8.15;5.97;;;;;;;25.14;65.30;99499.69;4435034;32;34292;-85
2022/07/26 11:32:17;;;;;;;6.47;5.75;;;;;;;25.62;62.67;99501.53;4466644;32;32616;-83
2022/07/26 11:35:00;;;;;;;7.75;6.40;;;;;;;25.56;62.52;99504.09;4462400;32;33293;-84
2022/07/26 11:37:29;;;;;;;8.48;6.05;;;;;;;25.84;61.63;99508.13;4433125;32;33529;-84
2022/07/26 11:39:58;;;;;;;6.47;5.87;;;;;;;25.73;62.11;99506.59;4450972;32;32477;-84
2022/07/26 11:42:31;;;;;;;7.22;5.97;;;;;;;25.83;62.23;99500.16;4453057;32;32182;-84
2022/07/26 11:45:02;;;;;;;6.72;5.87;;;;;;;25.83;62.00;99505.59;4461349;32;33644;-84
2022/07/26 11:47:32;;;;;;;7.62;6.82;;;;;;;25.87;62.02;99488.84;4448335;32;32470;-84
2022/07/26 11:50:07;;;;;;;9.73;6.10;;;;;;;25.99;62.14;99479.34;4463214;32;33193;-83
2022/07/26 11:52:50;;;;;;;8.70;6.28;;;;;;;26.07;62.62;99486.59;4463158;32;33400;-84
2022/07/26 11:55:30;;;;;;;8.15;5.97;;;;;;;26.12;61.75;99478.81;4440202;32;32404;-84
2022/07/26 11:58:03;;;;;;;9.63;7.00;;;;;;;26.27;60.46;99487.88;4448193;32;33605;-82
2022/07/26 12:00:38;;;;;;;10.57;6.87;;;;;;;26.22;60.84;99492.13;4454529;32;35078;-82
2022/07/26 12:03:06;;;;;;;10.48;6.65;;;;;;;26.56;59.28;99494.53;4450399;32;33792;-82
2022/07/26 12:05:35;;;;;;;11.35;7.55;;;;;;;26.25;61.20;99489.06;4457357;32;33251;-82